Canby, MN

2:43 PM CDT on June 25, 2018 (GMT -0500)
Canby

Weather History for KCNB - December, 2014

Change the Weather History Date:

Wednesday, December 24, 2014

  Actual Average (WUND) Record (WUND)
Temperature  
Mean Temperature 29 °F -  
Max Temperature 31 °F - - (-1)
Min Temperature 27 °F - - (-1)
Degree Days  
Heating Degree Days 36    
Moisture  
Dew Point 27 °F    
Average Humidity 91    
Maximum Humidity 93    
Minimum Humidity 88    
Precipitation  
Precipitation 0.00 in - - ()
Sea Level Pressure  
Sea Level Pressure 29.76 in    
Wind  
Wind Speed 11 mph (West)    
Max Wind Speed 16 mph    
Max Gust Speed 23 mph    
Visibility 10 miles    
Events      
Averages and records for this station are not official NWS values.
T = Trace of Precipitation, MM = Missing Value Source: NWS Daily Summary

Daily Weather History Graph

Daily Weather History Graph

Search for Another Location

Airport or City:

Astronomy

Dec. 24, 2014 Rise Set
Actual Time 8:00 AM CST 4:48 PM CST
Civil Twilight 7:26 AM CST 5:22 PM CST
Nautical Twilight 6:49 AM CST 5:59 PM CST
Astronomical Twilight 6:14 AM CST 6:35 PM CST
Moon 9:46 AM CST (12/24) 8:22 PM CST (12/24)
Length of Visible Light 9h 55m
Length of Day
8h 48m
Waxing Crescent, 10% of the Moon is Illuminated
Dec 24
Waxing Crescent
Dec 28
First Quarter
Jan 4
Full
Jan 13
Last Quarter
Jan 20
New

Hourly Weather History & Observations

Time (CST) Temp. Windchill Dew Point Humidity Pressure Visibility Wind Dir Wind Speed Gust Speed Precip Events Conditions
12:13 AM 31.8 °F 21.4 °F 29.7 °F 92% 29.97 in 10.0 mi NNW 15.0 mph 23.0 mph N/A   Overcast
12:34 AM 31.8 °F 21.4 °F 29.7 °F 92% 29.96 in 10.0 mi NNW 15.0 mph 20.7 mph N/A   Overcast
12:54 AM 31.6 °F 22.1 °F 29.3 °F 91% 29.95 in 10.0 mi NNW 12.7 mph - N/A   Overcast
1:13 AM 31.6 °F 21.6 °F 29.3 °F 91% 29.95 in 10.0 mi NNW 13.8 mph - N/A   Overcast
1:34 AM 31.6 °F 23.1 °F 29.3 °F 91% 29.94 in 10.0 mi NNW 10.4 mph - N/A   Overcast
1:53 AM 31.5 °F 21.8 °F 29.5 °F 92% 29.93 in 10.0 mi NNW 12.7 mph 18.4 mph N/A   Overcast
2:14 AM 31.5 °F 20.9 °F 29.3 °F 92% 29.93 in 10.0 mi NNW 15.0 mph 20.7 mph N/A   Overcast
2:34 AM 31.6 °F 23.1 °F 29.3 °F 91% 29.94 in 10.0 mi NNW 10.4 mph 17.3 mph N/A   Overcast
2:54 AM 31.5 °F 20.5 °F 29.3 °F 92% 29.94 in 10.0 mi NNW 16.1 mph 20.7 mph N/A   Overcast
3:14 AM 31.5 °F 21.4 °F 29.3 °F 92% 29.94 in 10.0 mi NW 13.8 mph 20.7 mph N/A   Overcast
3:34 AM 31.5 °F 22.3 °F 29.1 °F 91% 29.92 in 10.0 mi NNW 11.5 mph - N/A   Overcast
3:54 AM 31.1 °F 22.4 °F 29.1 °F 92% 29.91 in 10.0 mi NNW 10.4 mph - N/A   Overcast
4:13 AM 31.1 °F 23.7 °F 29.1 °F 92% 29.90 in 7.0 mi NW 8.1 mph - N/A   Overcast
4:34 AM 30.9 °F 23.5 °F 28.9 °F 92% 29.89 in 10.0 mi NW 8.1 mph - N/A   Overcast
4:53 AM 30.7 °F 21.4 °F 28.8 °F 92% 29.88 in 10.0 mi NW 11.5 mph 16.1 mph N/A   Overcast
5:14 AM 30.9 °F 22.2 °F 28.9 °F 92% 29.88 in 10.0 mi NW 10.4 mph - N/A   Overcast
5:34 AM 30.6 °F 20.2 °F 28.4 °F 92% 29.87 in 10.0 mi NW 13.8 mph 17.3 mph N/A   Overcast
5:54 AM 30.6 °F 19.8 °F 28.4 °F 92% 29.88 in 10.0 mi NW 15.0 mph 21.9 mph N/A   Overcast
6:13 AM 30.4 °F 20.5 °F 28.4 °F 92% 29.88 in 10.0 mi NNW 12.7 mph - N/A   Overcast
6:34 AM 30.6 °F 21.8 °F 28.2 °F 91% 29.87 in 10.0 mi NNW 10.4 mph - N/A   Overcast
6:53 AM 30.6 °F 22.4 °F 28.2 °F 91% 29.87 in 10.0 mi NW 9.2 mph - N/A   Overcast
7:14 AM 30.2 °F 20.8 °F 27.9 °F 91% 29.87 in 10.0 mi NW 11.5 mph - N/A   Overcast
7:34 AM 30.2 °F 22.6 °F 27.7 °F 90% 29.87 in 10.0 mi NNW 8.1 mph - N/A   Overcast
7:53 AM 30.2 °F 21.9 °F 28.0 °F 92% 29.86 in 10.0 mi NW 9.2 mph - N/A   Overcast
8:14 AM 30.2 °F 21.9 °F 27.9 °F 91% 29.85 in 10.0 mi NW 9.2 mph - N/A   Overcast
8:33 AM 30.2 °F 21.9 °F 27.9 °F 91% 29.86 in 10.0 mi NW 9.2 mph - N/A   Overcast
8:54 AM 30.2 °F 23.4 °F 28.0 °F 92% 29.86 in 10.0 mi NW 6.9 mph - N/A   Overcast
9:14 AM 30.2 °F 22.6 °F 27.9 °F 91% 29.85 in 10.0 mi NW 8.1 mph - N/A   Overcast
9:33 AM 30.2 °F 20.8 °F 27.9 °F 91% 29.85 in 10.0 mi NW 11.5 mph - N/A   Overcast
9:54 AM 30.4 °F 21.0 °F 27.7 °F 90% 29.84 in 10.0 mi NW 11.5 mph - N/A   Overcast
10:14 AM 30.2 °F 20.2 °F 27.9 °F 91% 29.83 in 10.0 mi WNW 12.7 mph - N/A   Overcast
10:34 AM 30.2 °F 21.3 °F 27.5 °F 90% 29.83 in 10.0 mi WNW 10.4 mph - N/A   Overcast
10:54 AM 30.2 °F 21.9 °F 27.5 °F 90% 29.81 in 10.0 mi WNW 9.2 mph - N/A   Overcast
11:13 AM 30.2 °F 21.9 °F 27.1 °F 88% 29.80 in 10.0 mi WNW 9.2 mph - N/A   Overcast
11:34 AM 30.6 °F 24.7 °F 27.3 °F 88% 29.78 in 10.0 mi WNW 5.8 mph - N/A   Overcast
11:54 AM 30.2 °F 22.6 °F 27.1 °F 88% 29.78 in 10.0 mi WNW 8.1 mph - N/A   Overcast
12:13 PM 30.2 °F 21.9 °F 27.1 °F 88% 29.77 in 10.0 mi West 9.2 mph - N/A   Overcast
12:34 PM 30.0 °F 21.1 °F 27.1 °F 89% 29.75 in 10.0 mi West 10.4 mph - N/A   Overcast
12:54 PM 30.0 °F 22.4 °F 27.3 °F 90% 29.73 in 10.0 mi West 8.1 mph - N/A   Overcast
1:13 PM 30.0 °F 21.7 °F 27.5 °F 90% 29.72 in 10.0 mi West 9.2 mph - N/A   Overcast
1:34 PM 29.7 °F 20.1 °F 27.0 °F 90% 29.71 in 10.0 mi West 11.5 mph - N/A   Overcast
1:54 PM 29.5 °F 20.4 °F 27.0 °F 90% 29.71 in 10.0 mi WSW 10.4 mph 16.1 mph N/A   Overcast
2:14 PM 29.3 °F 19.6 °F 26.6 °F 90% 29.70 in 10.0 mi WSW 11.5 mph - N/A   Overcast
2:33 PM 28.2 °F 20.2 °F 26.2 °F 92% 29.69 in 10.0 mi WSW 8.1 mph - N/A   Overcast
2:54 PM 27.9 °F 17.8 °F 25.7 °F 92% 29.68 in 10.0 mi West 11.5 mph - N/A   Overcast
3:14 PM 28.2 °F 19.5 °F 25.9 °F 91% 29.68 in 10.0 mi West 9.2 mph - N/A   Overcast
3:34 PM 28.0 °F 22.8 °F 25.9 °F 92% 29.67 in 7.0 mi West 4.6 mph - N/A   Overcast
3:54 PM 28.0 °F 20.8 °F 26.1 °F 92% 29.66 in 10.0 mi West 6.9 mph - N/A   Overcast
4:13 PM 28.0 °F 20.8 °F 25.7 °F 91% 29.65 in 10.0 mi West 6.9 mph - N/A   Overcast
4:34 PM 28.2 °F 19.5 °F 25.7 °F 90% 29.65 in 10.0 mi WSW 9.2 mph - N/A   Overcast
4:54 PM 28.2 °F 22.0 °F 25.9 °F 91% 29.64 in 10.0 mi SW 5.8 mph - N/A   Overcast
5:14 PM 28.0 °F 22.8 °F 25.9 °F 92% 29.63 in 10.0 mi SSW 4.6 mph - N/A   Overcast
5:34 PM 27.5 °F 19.3 °F 25.5 °F 92% 29.63 in 10.0 mi SW 8.1 mph - N/A   Overcast
5:53 PM 27.5 °F 21.1 °F 25.5 °F 92% 29.62 in 10.0 mi SW 5.8 mph - N/A   Overcast
6:14 PM 27.3 °F 20.9 °F 25.3 °F 92% 29.62 in 10.0 mi SSW 5.8 mph - N/A   Overcast
6:34 PM 27.1 °F 21.8 °F 25.2 °F 92% 29.61 in 10.0 mi WSW 4.6 mph - N/A   Mostly Cloudy
6:54 PM 27.0 °F 18.0 °F 25.0 °F 92% 29.60 in 7.0 mi SW 9.2 mph - N/A   Scattered Clouds
7:14 PM 27.0 °F 16.1 °F 25.2 °F 93% 29.60 in 10.0 mi SW 12.7 mph 18.4 mph N/A   Scattered Clouds
7:33 PM 27.1 °F 19.7 °F 25.2 °F 92% 29.59 in 10.0 mi SSW 6.9 mph - N/A   Mostly Cloudy
7:54 PM 27.5 °F 20.2 °F 25.3 °F 92% 29.59 in 7.0 mi SSW 6.9 mph - N/A   Overcast
8:14 PM 27.5 °F 19.3 °F 25.3 °F 92% 29.58 in 7.0 mi SSW 8.1 mph - N/A   Overcast
8:33 PM 27.5 °F 21.1 °F 25.2 °F 91% 29.57 in 10.0 mi South 5.8 mph - N/A   Scattered Clouds
8:54 PM 27.5 °F - 25.3 °F 92% 29.57 in 7.0 mi Calm Calm - N/A   Clear
9:14 PM 27.3 °F 23.4 °F 24.8 °F 90% 29.56 in 10.0 mi South 3.5 mph - N/A   Clear
9:33 PM 27.5 °F - 24.8 °F 90% 29.57 in 10.0 mi Calm Calm - N/A   Clear
9:54 PM 27.5 °F 21.1 °F 24.8 °F 90% 29.56 in 10.0 mi SSW 5.8 mph 9.2 mph N/A   Clear
10:14 PM 27.5 °F 22.2 °F 24.8 °F 90% 29.55 in 10.0 mi South 4.6 mph - N/A   Clear
10:34 PM 27.5 °F 21.1 °F 25.0 °F 90% 29.55 in 10.0 mi South 5.8 mph - N/A   Scattered Clouds
10:54 PM 27.9 °F 21.5 °F 24.8 °F 88% 29.54 in 10.0 mi South 5.8 mph - N/A   Mostly Cloudy
11:13 PM 27.9 °F 21.5 °F 25.0 °F 89% 29.54 in 10.0 mi South 5.8 mph - N/A   Overcast
11:34 PM 28.0 °F 21.7 °F 24.8 °F 88% 29.54 in 10.0 mi South 5.8 mph - N/A   Overcast
11:54 PM 28.4 °F 22.2 °F 25.3 °F 88% 29.54 in 10.0 mi South 5.8 mph - N/A   Overcast